createdAt,value
2019-02-25T00:00:31.140Z,65.54
2019-02-25T00:05:32.777Z,65.76
2019-02-25T00:10:34.431Z,66.08
2019-02-25T00:15:36.017Z,66.67
2019-02-25T00:20:37.683Z,66.90
2019-02-25T00:25:39.703Z,66.73
2019-02-25T00:30:41.375Z,66.72
2019-02-25T00:35:42.894Z,66.51
2019-02-25T00:40:44.451Z,66.34
2019-02-25T00:45:45.987Z,66.70
2019-02-25T00:50:47.901Z,66.72
2019-02-25T00:55:49.730Z,66.43
2019-02-25T01:00:51.346Z,66.45
2019-02-25T01:05:52.935Z,66.43
2019-02-25T01:10:54.501Z,66.58
2019-02-25T01:15:56.055Z,66.60
2019-02-25T01:20:57.634Z,66.66
2019-02-25T01:25:59.218Z,66.86
2019-02-25T01:31:00.836Z,66.83
2019-02-25T01:36:02.343Z,66.89
2019-02-25T01:41:04.042Z,66.88
2019-02-25T01:46:05.652Z,66.74
2019-02-25T01:51:07.265Z,66.68
2019-02-25T01:56:09.182Z,68.40
2019-02-25T02:01:10.812Z,67.19
2019-02-25T02:06:12.555Z,66.46
2019-02-25T02:11:14.488Z,66.38
2019-02-25T02:16:16.088Z,66.27
2019-02-25T02:21:17.693Z,66.30
2019-02-25T02:26:21.051Z,66.39
2019-02-25T02:31:23.508Z,66.34
2019-02-25T02:36:25.142Z,66.30
2019-02-25T02:41:26.775Z,66.50
2019-02-25T02:47:14.414Z,66.99
2019-02-25T02:52:16.063Z,67.06
2019-02-25T02:57:17.609Z,67.02
2019-02-25T03:02:19.236Z,66.89
2019-02-25T03:07:21.204Z,65.78
2019-02-25T03:12:22.787Z,66.04
2019-02-25T03:17:24.479Z,66.63
2019-02-25T03:22:26.081Z,66.61
2019-02-25T03:27:28.080Z,66.30
2019-02-25T03:32:29.664Z,66.24
2019-02-25T03:37:31.244Z,66.00
2019-02-25T03:42:32.836Z,65.97
2019-02-25T03:47:34.391Z,66.01
2019-02-25T03:52:35.962Z,66.25
2019-02-25T03:57:37.583Z,66.43
2019-02-25T04:02:39.185Z,67.08
2019-02-25T04:07:40.889Z,67.68
2019-02-25T04:12:42.595Z,68.06
2019-02-25T04:17:44.445Z,67.61
2019-02-25T04:22:46.074Z,67.43
2019-02-25T04:27:47.819Z,66.54
2019-02-25T04:32:49.424Z,66.46
2019-02-25T04:37:50.999Z,66.53
2019-02-25T04:42:52.658Z,66.58
2019-02-25T04:47:54.279Z,66.80
2019-02-25T04:52:55.894Z,66.86
2019-02-25T04:57:57.682Z,66.78
2019-02-25T05:02:59.725Z,66.22
2019-02-25T05:08:01.421Z,66.50
2019-02-25T05:13:02.987Z,66.22
2019-02-25T05:18:04.544Z,67.13
2019-02-25T05:23:06.185Z,67.76
2019-02-25T05:28:07.849Z,67.83
2019-02-25T05:33:09.489Z,66.93
2019-02-25T05:38:11.149Z,66.82
2019-02-25T05:43:13.137Z,67.45
2019-02-25T05:48:15.115Z,66.77
2019-02-25T05:53:16.823Z,66.01
2019-02-25T05:58:18.469Z,66.19
2019-02-25T06:03:20.574Z,66.18
2019-02-25T06:08:22.979Z,66.43
2019-02-25T06:13:24.630Z,66.56
2019-02-25T06:18:26.176Z,66.81
2019-02-25T06:23:27.857Z,66.97
2019-02-25T06:28:29.476Z,67.30
2019-02-25T06:33:31.063Z,67.49
2019-02-25T06:38:32.993Z,67.62
2019-02-25T06:43:34.594Z,66.73
2019-02-25T06:48:36.287Z,67.22
2019-02-25T06:53:38.112Z,66.70
2019-02-25T06:58:40.071Z,66.37
2019-02-25T07:03:43.572Z,65.25
2019-02-25T07:08:45.261Z,65.68
2019-02-25T07:13:46.883Z,65.52
2019-02-25T07:18:48.595Z,64.20
2019-02-25T07:23:50.265Z,63.60
2019-02-25T07:28:52.382Z,62.58
2019-02-25T07:33:54.818Z,63.45
2019-02-25T07:38:56.421Z,63.72
2019-02-25T07:43:58.212Z,63.83
2019-02-25T07:48:59.973Z,64.44
2019-02-25T07:54:02.184Z,64.84
2019-02-25T07:59:04.157Z,65.34
2019-02-25T08:04:05.797Z,65.50
2019-02-25T08:09:07.820Z,65.12
2019-02-25T08:14:09.425Z,64.90
2019-02-25T08:19:11.055Z,64.75
2019-02-25T08:24:12.705Z,64.39
2019-02-25T08:29:14.444Z,63.92
2019-02-25T08:34:18.672Z,64.12
2019-02-25T08:39:20.248Z,63.76
2019-02-25T08:44:21.897Z,63.67
2019-02-25T08:49:23.531Z,63.13
2019-02-25T08:54:25.172Z,62.61
2019-02-25T08:59:26.821Z,63.12
2019-02-25T09:04:28.414Z,63.46
2019-02-25T09:09:30.111Z,62.46
2019-02-25T09:14:31.877Z,61.84
2019-02-25T09:19:33.500Z,60.74
2019-02-25T09:24:35.112Z,60.94
2019-02-25T09:29:36.718Z,61.20
2019-02-25T09:34:38.429Z,58.82
2019-02-25T09:39:40.043Z,57.75
2019-02-25T09:44:41.643Z,58.06
2019-02-25T09:49:43.228Z,57.14
2019-02-25T09:54:44.817Z,55.21
2019-02-25T09:59:46.494Z,55.45
2019-02-25T10:04:48.218Z,55.65
2019-02-25T10:09:49.886Z,55.08
2019-02-25T10:14:51.528Z,52.32
2019-02-25T10:19:53.140Z,53.35
2019-02-25T10:24:54.756Z,53.43
2019-02-25T10:29:56.418Z,52.10
2019-02-25T10:34:58.142Z,52.40
2019-02-25T10:39:59.995Z,51.75
2019-02-25T10:45:02.631Z,51.24
2019-02-25T10:50:07.408Z,50.43
2019-02-25T10:55:13.038Z,49.00
2019-02-25T11:00:14.718Z,48.57
2019-02-25T11:05:16.657Z,48.22
2019-02-25T11:10:20.235Z,48.56
2019-02-25T11:15:21.893Z,46.63
2019-02-25T11:20:23.500Z,46.33
2019-02-25T11:25:26.305Z,47.42
2019-02-25T11:30:29.879Z,48.49
2019-02-25T11:35:34.053Z,54.43
2019-02-25T11:40:36.519Z,71.98
2019-02-25T11:45:39.085Z,70.90
2019-02-25T11:50:40.708Z,71.89
2019-02-25T11:55:42.747Z,69.35
2019-02-25T12:00:44.521Z,67.32
2019-02-25T12:05:46.133Z,65.11
2019-02-25T12:10:48.172Z,63.50
2019-02-25T12:15:50.069Z,66.72
2019-02-25T12:20:51.683Z,65.58
2019-02-25T12:25:53.830Z,62.89
2019-02-25T12:30:55.445Z,60.41
2019-02-25T12:35:57.048Z,57.45
2019-02-25T12:40:58.623Z,55.54
2019-02-25T12:46:00.563Z,52.98
2019-02-25T12:51:02.237Z,56.43
2019-02-25T12:56:03.899Z,52.57
2019-02-25T13:01:05.527Z,55.08
2019-02-25T13:06:07.180Z,54.00
2019-02-25T13:11:08.930Z,52.57
2019-02-25T13:16:10.570Z,50.39
2019-02-25T13:21:13.086Z,54.24
2019-02-25T13:26:15.069Z,45.01
2019-02-25T13:31:16.657Z,48.03
2019-02-25T13:36:18.253Z,45.30
2019-02-25T13:41:19.850Z,48.20
2019-02-25T13:46:21.950Z,51.59
2019-02-25T13:51:23.576Z,48.11
2019-02-25T13:56:25.145Z,49.93
2019-02-25T14:01:28.927Z,45.61
2019-02-25T14:06:30.338Z,43.58
2019-02-25T14:11:32.419Z,47.48
2019-02-25T14:16:34.112Z,51.77
2019-02-25T14:21:36.708Z,50.54
2019-02-25T14:26:38.331Z,42.50
2019-02-25T14:31:40.208Z,42.50
2019-02-25T14:36:42.218Z,40.93
2019-02-25T14:41:43.844Z,39.07
2019-02-25T14:46:45.536Z,39.28
2019-02-25T14:51:48.855Z,39.16
2019-02-25T14:56:52.756Z,40.95
2019-02-25T15:01:56.873Z,39.61
2019-02-25T15:06:58.271Z,40.65
2019-02-25T15:12:01.781Z,38.82
2019-02-25T15:17:03.885Z,40.71
2019-02-25T15:22:05.962Z,39.60
2019-02-25T15:27:09.303Z,40.51
2019-02-25T15:32:11.398Z,39.33
2019-02-25T15:37:13.962Z,39.63
2019-02-25T15:42:15.856Z,41.29
2019-02-25T15:47:17.856Z,41.47
2019-02-25T15:52:21.067Z,42.87
2019-02-25T15:57:24.527Z,40.71
2019-02-25T16:02:27.715Z,42.43
2019-02-25T16:07:30.248Z,42.67
2019-02-25T16:12:35.691Z,43.49
2019-02-25T16:17:37.661Z,43.38
2019-02-25T16:22:40.799Z,43.06
2019-02-25T16:27:45.099Z,42.98
2019-02-25T16:32:48.405Z,42.30
2019-02-25T16:37:50.722Z,42.98
2019-02-25T16:42:57.059Z,43.75
2019-02-25T16:47:57.216Z,42.98
2019-02-25T16:52:58.877Z,44.51
2019-02-25T16:58:03.486Z,43.22
2019-02-25T17:03:06.532Z,44.67
2019-02-25T17:08:10.393Z,42.22
2019-02-25T17:13:14.893Z,42.05
2019-02-25T17:18:16.934Z,46.92
2019-02-25T17:23:18.644Z,45.71
2019-02-25T17:28:22.277Z,49.85
2019-02-25T17:33:24.582Z,45.95
2019-02-25T17:38:29.015Z,46.68
2019-02-25T17:43:32.120Z,46.74
2019-02-25T17:48:36.535Z,46.36
2019-02-25T17:53:38.161Z,47.36
2019-02-25T17:58:40.708Z,47.10
2019-02-25T18:03:46.019Z,47.70
2019-02-25T18:08:48.400Z,48.47
2019-02-25T18:13:51.268Z,49.50
2019-02-25T18:18:54.455Z,51.07
2019-02-25T18:23:57.267Z,50.10
2019-02-25T18:28:59.303Z,51.31
2019-02-25T18:34:01.177Z,52.98
2019-02-25T18:39:05.299Z,52.07
2019-02-25T18:44:07.584Z,52.21
2019-02-25T18:49:11.708Z,53.53
2019-02-25T18:54:16.959Z,55.40
2019-02-25T18:59:20.282Z,54.23
2019-02-25T19:04:22.050Z,54.54
2019-02-25T19:09:25.655Z,54.79
2019-02-25T19:14:28.881Z,54.25
2019-02-25T19:19:34.005Z,54.66
2019-02-25T19:24:35.858Z,55.25
2019-02-25T19:29:38.489Z,55.62
2019-02-25T19:34:40.234Z,56.17
2019-02-25T19:39:43.800Z,57.07
2019-02-25T19:44:45.823Z,57.84
2019-02-25T19:49:47.386Z,57.62
2019-02-25T19:54:50.707Z,59.16
2019-02-25T19:59:53.543Z,60.02
2019-02-25T20:04:56.615Z,59.18
2019-02-25T20:09:58.684Z,58.84
2019-02-25T20:15:00.498Z,59.93
2019-02-25T20:20:08.180Z,60.05
2019-02-25T20:25:16.693Z,60.73
2019-02-25T20:30:19.643Z,61.25
2019-02-25T20:35:24.515Z,61.83
2019-02-25T20:40:32.862Z,61.50
2019-02-25T20:45:35.932Z,61.93
2019-02-25T20:50:37.564Z,61.71
2019-02-25T20:55:39.267Z,62.02
2019-02-25T21:00:42.015Z,61.78
2019-02-25T21:05:45.172Z,61.92
2019-02-25T21:10:47.046Z,62.05
2019-02-25T21:15:50.809Z,61.86
2019-02-25T21:20:53.753Z,62.01
2019-02-25T21:25:59.494Z,62.21
2019-02-25T21:31:00.653Z,62.28
2019-02-25T21:36:02.335Z,62.54
2019-02-25T21:41:03.960Z,62.54
2019-02-25T21:46:05.549Z,62.69
2019-02-25T21:51:09.608Z,63.11
2019-02-25T21:56:10.990Z,63.62
2019-02-25T22:01:12.654Z,63.45
2019-02-25T22:06:18.071Z,63.48
2019-02-25T22:11:19.822Z,64.81
2019-02-25T22:16:23.157Z,64.34
2019-02-25T22:21:24.920Z,64.28
2019-02-25T22:26:29.139Z,65.03
2019-02-25T22:31:32.361Z,64.96
2019-02-25T22:36:34.722Z,64.92
2019-02-25T22:41:36.356Z,65.53
2019-02-25T22:46:39.667Z,65.65
2019-02-25T22:51:41.424Z,65.74
2019-02-25T22:56:43.010Z,66.46
2019-02-25T23:01:44.594Z,66.02
2019-02-25T23:06:48.823Z,66.06
2019-02-25T23:11:52.692Z,66.13
2019-02-25T23:16:56.157Z,66.22
2019-02-25T23:21:57.762Z,66.28
2019-02-25T23:26:59.682Z,66.37
2019-02-25T23:32:02.530Z,66.33
2019-02-25T23:37:04.371Z,66.47
2019-02-25T23:42:07.302Z,67.12
2019-02-25T23:47:10.954Z,67.25
2019-02-25T23:52:12.619Z,67.18
2019-02-25T23:57:14.716Z,67.58
